Time;durP1;ratioP1;P1;durP2;ratioP2;P2;SDS_P1;SDS_P2;PMS_P1;PMS_P2;Temp;Humidity;BMP_temperature;BMP_pressure;BME280_temperature;BME280_humidity;BME280_pressure;Samples;Min_cycle;Max_cycle;Signal;HPM_P1;HPM_P2
2022/10/16 00:01:23;;;;;;;4.90;1.63;;;16.80;1.00;;;;;;5111329;28;20471;-55
2022/10/16 00:03:49;;;;;;;4.93;1.50;;;16.90;9.40;;;;;;5092090;28;20388;-55
2022/10/16 00:06:16;;;;;;;6.57;1.60;;;17.00;1.00;;;;;;5111224;28;20400;-55
2022/10/16 00:08:42;;;;;;;4.63;1.30;;;16.90;1.00;;;;;;5110364;28;20376;-56
2022/10/16 00:11:11;;;;;;;5.50;1.50;;;17.00;1.00;;;;;;5111280;28;20380;-56
2022/10/16 00:13:39;;;;;;;6.30;1.50;;;17.00;1.00;;;;;;5111554;28;20376;-55
2022/10/16 00:16:07;;;;;;;4.82;1.40;;;17.10;1.00;;;;;;5111439;28;20391;-55
2022/10/16 00:18:32;;;;;;;5.10;1.30;;;17.00;1.00;;;;;;5110855;28;20398;-56
2022/10/16 00:21:04;;;;;;;5.60;1.20;;;16.90;1.00;;;;;;5110210;28;20448;-56
2022/10/16 00:23:30;;;;;;;5.57;1.20;;;16.90;1.00;;;;;;5111391;28;20817;-55
2022/10/16 00:25:58;;;;;;;8.17;2.00;;;16.90;1.00;;;;;;5110184;28;20832;-55
2022/10/16 00:28:24;;;;;;;5.60;1.50;;;16.90;1.00;;;;;;5110547;28;20412;-56
2022/10/16 00:30:49;;;;;;;6.20;1.30;;;16.80;1.00;;;;;;5109798;28;20397;-55
2022/10/16 00:33:15;;;;;;;4.60;1.30;;;16.80;1.00;;;;;;5092829;28;20403;-55
2022/10/16 00:35:40;;;;;;;5.10;1.60;;;16.80;1.00;;;;;;5110459;28;20752;-56
2022/10/16 00:38:06;;;;;;;6.03;1.10;;;16.80;1.00;;;;;;5110712;28;20451;-56
2022/10/16 00:40:32;;;;;;;5.00;1.50;;;16.80;1.00;;;;;;5110277;28;20384;-56
2022/10/16 00:42:57;;;;;;;4.90;1.30;;;16.80;1.00;;;;;;5110148;28;20816;-56
2022/10/16 00:45:23;;;;;;;6.80;1.50;;;16.90;1.00;;;;;;5110880;28;20406;-56
2022/10/16 00:47:52;;;;;;;5.13;1.58;;;16.80;1.00;;;;;;5110011;28;20376;-55
2022/10/16 00:50:34;;;;;;;4.93;1.20;;;16.80;1.00;;;;;;5110880;28;20563;-56
2022/10/16 00:53:01;;;;;;;5.13;1.40;;;16.80;1.00;;;;;;5109957;28;20372;-56
2022/10/16 00:55:29;;;;;;;5.35;1.52;;;16.80;1.00;;;;;;5110874;28;20419;-55
2022/10/16 00:57:57;;;;;;;5.40;1.40;;;16.80;1.00;;;;;;5109453;28;20380;-55
2022/10/16 01:00:25;;;;;;;6.50;1.50;;;16.90;1.00;;;;;;5110402;28;20399;-56
2022/10/16 01:03:02;;;;;;;6.45;1.67;;;16.90;1.00;;;;;;5109255;28;20431;-56
2022/10/16 01:05:51;;;;;;;5.38;1.60;;;17.00;1.00;;;;;;5109927;28;20453;-55
2022/10/16 01:08:34;;;;;;;5.50;1.80;;;16.90;1.00;;;;;;5110651;28;20380;-55
2022/10/16 01:11:19;;;;;;;5.72;1.58;;;16.80;1.00;;;;;;5110319;28;20713;-55
2022/10/16 01:13:53;;;;;;;5.80;1.70;;;16.80;1.00;;;;;;5110097;28;20381;-56
2022/10/16 01:16:35;;;;;;;4.90;1.60;;;16.90;1.00;;;;;;5110490;28;20376;-55
2022/10/16 01:19:10;;;;;;;5.88;1.80;;;17.00;1.00;;;;;;5109537;28;20410;-56
2022/10/16 01:21:40;;;;;;;5.90;1.25;;;17.00;1.00;;;;;;5113076;28;20397;-56
2022/10/16 01:24:41;;;;;;;5.63;1.30;;;16.90;1.00;;;;;;5115110;28;20710;-55
2022/10/16 01:27:26;;;;;;;5.00;1.50;;;16.90;1.00;;;;;;5114392;28;20365;-55
2022/10/16 01:30:04;;;;;;;5.20;1.35;;;16.90;1.00;;;;;;5113082;28;20778;-55
2022/10/16 01:32:50;;;;;;;5.20;1.60;;;17.00;1.00;;;;;;5113405;28;20552;-55
2022/10/16 01:36:01;;;;;;;9.98;1.75;;;17.10;1.00;;;;;;5114061;28;20391;-55
2022/10/16 01:38:36;;;;;;;6.00;1.60;;;17.10;1.00;;;;;;5108946;28;20422;-55
2022/10/16 01:41:17;;;;;;;5.43;1.45;;;17.10;1.00;;;;;;5113410;28;20373;-54
2022/10/16 01:43:48;;;;;;;4.60;1.30;;;17.20;1.00;;;;;;5113460;28;20756;-55
2022/10/16 01:46:18;;;;;;;5.00;1.40;;;17.20;1.00;;;;;;5114421;28;20500;-55
2022/10/16 01:48:44;;;;;;;4.70;1.30;;;17.20;1.00;;;;;;5113498;28;20380;-55
2022/10/16 01:51:13;;;;;;;6.20;1.40;;;17.20;1.00;;;;;;5113754;28;20400;-55
2022/10/16 01:53:41;;;;;;;5.38;1.50;;;17.00;1.00;;;;;;5113912;28;20872;-55
2022/10/16 01:56:10;;;;;;;4.80;1.38;;;17.10;1.00;;;;;;5113825;28;20391;-56
2022/10/16 01:58:43;;;;;;;5.00;1.30;;;17.00;1.00;;;;;;5114134;28;20383;-55
2022/10/16 02:01:12;;;;;;;5.38;1.60;;;17.00;1.00;;;;;;5113672;28;20384;-55
2022/10/16 02:03:41;;;;;;;5.33;1.70;;;16.90;1.00;;;;;;5113199;28;20738;-55
2022/10/16 02:06:07;;;;;;;5.40;1.60;;;16.90;1.00;;;;;;5114034;28;20446;-55
2022/10/16 02:08:33;;;;;;;6.38;1.73;;;16.80;1.00;;;;;;5113747;28;20457;-55
2022/10/16 02:11:01;;;;;;;6.50;1.93;;;16.80;8.10;;;;;;5113380;28;20946;-55
2022/10/16 02:13:35;;;;;;;5.28;1.63;;;16.80;2.20;;;;;;5113250;28;20732;-55
2022/10/16 02:16:01;;;;;;;6.40;1.50;;;16.90;2.30;;;;;;5113045;28;20404;-55
2022/10/16 02:18:30;;;;;;;5.73;1.80;;;16.90;1.00;;;;;;5113147;28;20373;-56
2022/10/16 02:21:13;;;;;;;5.38;1.70;;;17.00;1.00;;;;;;5112967;28;20387;-55
2022/10/16 02:23:42;;;;;;;4.93;1.40;;;17.00;1.00;;;;;;5113550;28;20373;-55
2022/10/16 02:26:12;;;;;;;4.93;1.70;;;17.00;1.00;;;;;;5112766;28;20881;-56
2022/10/16 02:28:52;;;;;;;4.93;1.60;;;17.10;1.00;;;;;;5112867;28;20395;-56
2022/10/16 02:31:25;;;;;;;5.03;1.58;;;17.10;1.00;;;;;;5112989;28;20462;-55
2022/10/16 02:33:52;;;;;;;5.85;2.20;;;17.10;1.00;;;;;;5110602;28;20718;-56
2022/10/16 02:36:18;;;;;;;5.80;1.70;;;17.00;1.00;;;;;;5113196;28;20395;-56
2022/10/16 02:38:44;;;;;;;5.37;1.57;;;17.00;1.00;;;;;;5112452;28;20764;-56
2022/10/16 02:41:10;;;;;;;5.78;2.10;;;17.10;1.00;;;;;;5112896;28;20369;-55
2022/10/16 02:43:35;;;;;;;5.20;1.70;;;17.10;1.00;;;;;;5112906;28;20422;-56
2022/10/16 02:46:01;;;;;;;5.60;1.77;;;17.00;1.00;;;;;;5112231;28;20471;-56
2022/10/16 02:48:26;;;;;;;6.15;1.65;;;17.00;1.00;;;;;;5113044;28;20376;-55
2022/10/16 02:50:52;;;;;;;5.00;1.60;;;17.00;1.00;;;;;;5111903;28;20373;-56
2022/10/16 02:53:17;;;;;;;6.03;1.80;;;17.00;1.00;;;;;;5112543;28;20422;-56
2022/10/16 02:55:43;;;;;;;5.57;1.60;;;17.00;1.00;;;;;;5112010;28;20479;-56
2022/10/16 02:58:09;;;;;;;5.90;1.80;;;17.00;1.00;;;;;;5113044;28;20365;-55
2022/10/16 03:00:34;;;;;;;5.23;1.67;;;17.10;1.00;;;;;;5112131;28;20380;-56
2022/10/16 03:03:00;;;;;;;5.70;1.75;;;16.90;1.00;;;;;;5111194;28;20381;-56
2022/10/16 03:05:25;;;;;;;7.28;1.63;;;17.00;1.00;;;;;;5112067;28;20410;-55
2022/10/16 03:07:52;;;;;;;5.10;1.80;;;16.90;1.00;;;;;;5112164;28;20418;-55
2022/10/16 03:10:18;;;;;;;6.75;1.77;;;16.80;1.00;;;;;;5112640;28;20375;-55
2022/10/16 03:12:44;;;;;;;9.77;1.80;;;16.80;1.00;;;;;;5111976;28;20768;-55
2022/10/16 03:15:10;;;;;;;5.63;1.70;;;16.80;1.00;;;;;;5112474;28;20390;-56
2022/10/16 03:17:36;;;;;;;7.68;2.00;;;16.80;1.00;;;;;;5112083;28;20364;-56
2022/10/16 03:20:02;;;;;;;7.33;1.90;;;16.80;1.00;;;;;;5111963;28;20737;-55
2022/10/16 03:22:28;;;;;;;5.25;1.90;;;16.70;1.00;;;;;;5111963;28;20480;-55
2022/10/16 03:24:54;;;;;;;5.10;1.60;;;16.70;1.00;;;;;;5111076;28;20937;-55
2022/10/16 03:27:19;;;;;;;5.73;2.10;;;16.60;1.00;;;;;;5111714;28;20425;-56
2022/10/16 03:29:45;;;;;;;5.60;1.80;;;16.60;1.00;;;;;;5111447;28;20733;-56
2022/10/16 03:32:10;;;;;;;6.88;2.00;;;16.60;1.00;;;;;;5110823;28;20417;-56
2022/10/16 03:34:43;;;;;;;5.33;1.70;;;16.50;8.20;;;;;;5093266;28;20391;-55
2022/10/16 03:37:09;;;;;;;5.90;2.00;;;16.50;18.90;;;;;;5111701;28;20383;-55
2022/10/16 03:39:34;;;;;;;6.47;2.20;;;16.50;35.50;;;;;;5111876;28;20454;-55
2022/10/16 03:42:00;;;;;;;5.40;1.90;;;16.50;27.50;;;;;;5110713;28;20373;-55
2022/10/16 03:44:25;;;;;;;7.05;2.20;;;16.50;45.70;;;;;;5111307;28;20408;-55
2022/10/16 03:46:51;;;;;;;5.60;1.98;;;16.60;37.60;;;;;;5092833;28;20406;-55
2022/10/16 03:49:16;;;;;;;7.80;1.70;;;16.50;17.30;;;;;;5111428;28;20471;-55
2022/10/16 03:51:42;;;;;;;6.20;1.60;;;16.50;30.30;;;;;;5111347;28;20376;-55
2022/10/16 03:54:09;;;;;;;6.40;2.00;;;16.60;20.00;;;;;;5110609;28;20707;-55
2022/10/16 03:56:34;;;;;;;6.00;1.83;;;16.60;1.00;;;;;;5111270;28;20373;-55
2022/10/16 03:59:00;;;;;;;7.40;2.10;;;16.50;2.70;;;;;;5110460;28;20464;-55
2022/10/16 04:01:26;;;;;;;5.73;1.80;;;16.50;30.40;;;;;;5111512;28;20387;-55
2022/10/16 04:03:51;;;;;;;6.65;2.40;;;16.50;1.00;;;;;;5110757;28;20479;-55
2022/10/16 04:06:17;;;;;;;6.90;1.80;;;16.60;5.10;;;;;;5110921;28;20408;-55
2022/10/16 04:08:44;;;;;;;10.03;2.30;;;16.60;1.00;;;;;;5111382;28;20423;-55
2022/10/16 04:11:09;;;;;;;5.93;1.73;;;16.50;1.00;;;;;;5111672;28;20356;-55
2022/10/16 04:13:35;;;;;;;5.00;1.70;;;16.40;1.00;;;;;;5111513;28;20695;-55
2022/10/16 04:16:00;;;;;;;7.30;2.23;;;16.50;1.00;;;;;;5110264;28;20736;-55
2022/10/16 04:18:27;;;;;;;5.30;1.90;;;16.50;1.00;;;;;;5110938;28;20373;-55
2022/10/16 04:20:53;;;;;;;5.50;1.80;;;16.50;1.00;;;;;;5110431;28;20383;-55
2022/10/16 04:23:18;;;;;;;8.18;2.10;;;16.50;6.80;;;;;;5111060;28;20371;-56
2022/10/16 04:25:44;;;;;;;6.17;1.87;;;16.40;1.00;;;;;;5110894;28;20407;-56
2022/10/16 04:28:10;;;;;;;6.73;1.70;;;16.50;5.00;;;;;;5110155;28;20388;-55
2022/10/16 04:30:38;;;;;;;7.00;2.00;;;16.50;1.00;;;;;;5110459;28;20385;-56
2022/10/16 04:33:04;;;;;;;6.30;2.15;;;16.40;1.70;;;;;;5109753;28;20416;-56
2022/10/16 04:35:30;;;;;;;6.10;2.00;;;16.40;37.20;;;;;;5110601;28;20380;-56
2022/10/16 04:37:57;;;;;;;6.78;2.00;;;16.40;66.20;;;;;;5110230;28;20764;-56
2022/10/16 04:40:23;;;;;;;6.00;2.10;;;16.40;55.10;;;;;;5110938;28;20376;-55
2022/10/16 04:42:49;;;;;;;5.30;1.80;;;16.50;30.60;;;;;;5109650;28;20376;-56
2022/10/16 04:45:15;;;;;;;6.90;2.10;;;16.60;3.30;;;;;;5110913;28;20404;-56
2022/10/16 04:47:40;;;;;;;6.30;1.93;;;16.70;1.00;;;;;;5111323;28;20415;-55
2022/10/16 04:50:06;;;;;;;6.30;2.20;;;16.70;1.00;;;;;;5109722;28;20423;-56
2022/10/16 04:52:32;;;;;;;5.20;2.00;;;16.70;1.00;;;;;;5110576;28;20385;-55
2022/10/16 04:55:01;;;;;;;6.35;2.05;;;16.70;1.00;;;;;;5109520;28;20388;-55
2022/10/16 04:57:27;;;;;;;6.00;2.08;;;16.60;1.00;;;;;;5109732;28;20388;-55
2022/10/16 04:59:53;;;;;;;6.22;2.10;;;16.60;1.00;;;;;;5109755;28;20848;-56
2022/10/16 05:02:19;;;;;;;6.90;2.00;;;16.60;1.00;;;;;;5110852;28;20392;-55
2022/10/16 05:04:44;;;;;;;6.27;2.50;;;16.70;1.00;;;;;;5110357;28;20439;-56
2022/10/16 05:07:10;;;;;;;6.55;2.30;;;16.60;1.00;;;;;;5109422;28;20751;-56
2022/10/16 05:09:35;;;;;;;6.40;2.25;;;16.60;1.00;;;;;;5110693;28;20376;-55
2022/10/16 05:12:01;;;;;;;5.47;2.00;;;16.60;1.00;;;;;;5109987;28;20411;-55
2022/10/16 05:14:27;;;;;;;6.63;2.10;;;16.60;1.00;;;;;;5110170;28;20403;-55
2022/10/16 05:16:52;;;;;;;5.30;2.10;;;16.70;1.00;;;;;;5109472;28;20841;-56
2022/10/16 05:19:18;;;;;;;6.20;2.40;;;16.70;1.00;;;;;;5110006;28;20526;-56
2022/10/16 05:21:43;;;;;;;10.17;2.27;;;16.70;1.00;;;;;;5110153;28;20388;-56
2022/10/16 05:24:09;;;;;;;5.30;2.10;;;16.70;1.00;;;;;;5108803;28;20371;-57
2022/10/16 05:26:35;;;;;;;7.07;2.17;;;16.70;1.00;;;;;;5110077;28;20447;-57
2022/10/16 05:29:00;;;;;;;6.20;2.10;;;16.70;1.00;;;;;;5109234;28;20385;-58
2022/10/16 05:31:26;;;;;;;6.40;2.10;;;16.70;1.00;;;;;;5109736;28;20392;-57
2022/10/16 05:33:51;;;;;;;7.27;2.40;;;16.70;1.00;;;;;;5109323;28;20856;-56
2022/10/16 05:36:18;;;;;;;5.80;1.90;;;16.60;1.00;;;;;;5092826;28;20447;-56
2022/10/16 05:38:44;;;;;;;5.13;1.90;;;16.50;1.00;;;;;;5072386;28;20383;-55
2022/10/16 05:41:09;;;;;;;8.10;2.25;;;16.40;7.40;;;;;;5098371;28;20397;-56
2022/10/16 05:43:35;;;;;;;6.90;2.00;;;16.30;19.40;;;;;;5106522;28;20453;-56
2022/10/16 05:46:05;;;;;;;5.30;2.10;;;16.30;58.80;;;;;;5095985;28;20403;-56
2022/10/16 05:48:32;;;;;;;6.97;2.10;;;16.30;64.00;;;;;;5072501;28;20755;-56
2022/10/16 05:51:06;;;;;;;5.20;2.05;;;16.30;71.40;;;;;;5068200;28;20403;-56
2022/10/16 05:53:33;;;;;;;6.73;2.17;;;16.30;57.20;;;;;;5089072;28;20458;-56
2022/10/16 05:56:00;;;;;;;5.50;1.85;;;16.30;91.20;;;;;;5109011;28;20377;-56
2022/10/16 05:58:29;;;;;;;8.00;1.93;;;16.30;97.50;;;;;;5107836;28;20452;-59
2022/10/16 06:00:56;;;;;;;6.10;1.83;;;16.30;77.30;;;;;;5093568;28;20413;-59
2022/10/16 06:03:22;;;;;;;5.18;1.60;;;16.40;78.00;;;;;;5103228;28;20395;-59
2022/10/16 06:05:47;;;;;;;5.70;2.00;;;16.40;64.70;;;;;;5081395;28;20532;-59
2022/10/16 06:08:13;;;;;;;6.10;2.10;;;16.40;43.40;;;;;;5071666;28;20390;-59
2022/10/16 06:10:38;;;;;;;5.82;2.40;;;16.50;53.10;;;;;;5091723;28;20397;-59
2022/10/16 06:13:04;;;;;;;6.50;2.22;;;16.60;8.60;;;;;;5082046;28;20498;-58
2022/10/16 06:15:30;;;;;;;5.63;1.90;;;16.60;1.00;;;;;;5086759;28;20402;-59
2022/10/16 06:17:55;;;;;;;5.70;1.90;;;16.60;1.00;;;;;;5079453;28;20387;-58
2022/10/16 06:20:21;;;;;;;6.93;2.10;;;16.60;1.00;;;;;;5080722;28;20398;-59
2022/10/16 06:22:46;;;;;;;6.15;2.00;;;16.50;1.00;;;;;;5077796;28;20479;-59
2022/10/16 06:25:12;;;;;;;5.88;1.88;;;16.30;24.60;;;;;;5080721;28;20983;-59
2022/10/16 06:27:40;;;;;;;5.57;1.93;;;16.20;92.40;;;;;;5073693;28;20441;-58
2022/10/16 06:30:06;;;;;;;5.10;2.10;;;16.20;99.90;;;;;;5070955;28;20556;-59
2022/10/16 06:32:32;;;;;;;5.40;2.00;;;16.20;99.90;;;;;;5076117;28;20487;-58
2022/10/16 06:34:58;;;;;;;5.90;2.20;;;16.20;99.90;;;;;;5072232;28;20501;-58
2022/10/16 06:37:24;;;;;;;6.93;2.30;;;16.20;99.90;;;;;;5091335;28;20381;-58
2022/10/16 06:39:52;;;;;;;6.95;2.33;;;16.20;99.90;;;;;;5090776;28;20464;-58
2022/10/16 06:42:18;;;;;;;6.88;1.85;;;16.20;99.90;;;;;;5091219;28;20880;-59
2022/10/16 06:44:43;;;;;;;8.43;2.20;;;16.30;99.90;;;;;;5091488;28;20408;-58
2022/10/16 06:47:09;;;;;;;7.45;2.00;;;16.30;99.90;;;;;;5090620;28;20461;-59
2022/10/16 06:49:35;;;;;;;6.27;2.40;;;16.40;99.90;;;;;;5091395;28;20823;-58
2022/10/16 06:52:01;;;;;;;6.00;2.00;;;16.50;99.90;;;;;;5084735;28;20473;-59
2022/10/16 06:54:27;;;;;;;5.40;2.00;;;16.50;99.90;;;;;;5087939;28;20476;-59
2022/10/16 06:56:54;;;;;;;6.53;1.88;;;16.60;99.90;;;;;;5088111;28;20812;-59
2022/10/16 06:59:20;;;;;;;5.60;2.08;;;16.70;80.40;;;;;;5091184;28;20421;-59
2022/10/16 07:01:46;;;;;;;5.40;2.10;;;16.80;65.80;;;;;;5092355;28;20461;-59
2022/10/16 07:04:12;;;;;;;5.75;2.17;;;18.00;27.20;;;;;;5089968;28;20414;-59
2022/10/16 07:06:37;;;;;;;5.73;2.00;;;16.80;67.60;;;;;;5090801;28;20801;-59
2022/10/16 07:09:06;;;;;;;5.90;2.40;;;16.90;49.10;;;;;;5087621;28;20393;-58
2022/10/16 07:11:33;;;;;;;5.80;2.25;;;17.00;5.70;;;;;;5088065;28;20392;-59
2022/10/16 07:13:59;;;;;;;5.50;2.00;;;17.10;28.50;;;;;;5080901;28;20384;-58
2022/10/16 07:16:27;;;;;;;6.00;2.20;;;17.10;3.50;;;;;;5085136;28;20382;-56
2022/10/16 07:18:58;;;;;;;8.03;2.40;;;17.30;1.00;;;;;;5089316;28;20382;-56
2022/10/16 07:21:26;;;;;;;8.73;2.65;;;17.30;1.00;;;;;;5090738;28;20384;-56
2022/10/16 07:23:53;;;;;;;7.30;2.20;;;17.40;1.00;;;;;;5084061;28;20730;-56
2022/10/16 07:26:19;;;;;;;7.53;2.40;;;17.30;1.00;;;;;;5084665;28;20409;-56
2022/10/16 07:28:45;;;;;;;7.82;2.30;;;17.40;1.00;;;;;;5085337;28;20378;-56
2022/10/16 07:31:13;;;;;;;7.40;2.30;;;17.40;1.00;;;;;;5089122;28;20385;-56
2022/10/16 07:33:41;;;;;;;6.18;2.50;;;17.40;1.00;;;;;;5090579;28;20434;-56
2022/10/16 07:36:08;;;;;;;10.25;2.63;;;17.50;1.00;;;;;;5084811;28;20743;-56
2022/10/16 07:38:33;;;;;;;7.10;2.75;;;17.50;1.00;;;;;;5071237;28;20434;-56
2022/10/16 07:41:07;;;;;;;7.57;2.80;;;17.60;1.00;;;;;;5089896;28;20543;-56
2022/10/16 07:43:33;;;;;;;7.30;2.53;;;17.60;1.00;;;;;;5084024;28;20379;-57
2022/10/16 07:45:59;;;;;;;7.30;3.17;;;17.50;1.00;;;;;;5088570;28;20441;-56
2022/10/16 07:48:28;;;;;;;6.72;2.50;;;17.40;1.00;;;;;;5090246;28;20386;-56
2022/10/16 07:50:58;;;;;;;6.43;2.80;;;17.30;1.00;;;;;;5089374;28;20437;-56
2022/10/16 07:53:23;;;;;;;7.75;2.67;;;17.40;1.00;;;;;;5081340;28;20734;-56
2022/10/16 07:55:49;;;;;;;5.80;2.10;;;17.40;1.00;;;;;;5089339;28;20382;-57
2022/10/16 07:58:14;;;;;;;8.73;2.30;;;17.30;1.00;;;;;;5084950;28;20406;-56
2022/10/16 08:00:40;;;;;;;6.60;2.23;;;17.30;15.40;;;;;;5094183;28;20459;-56
2022/10/16 08:03:05;;;;;;;6.97;2.70;;;17.30;8.10;;;;;;5061636;28;20404;-56
2022/10/16 08:05:32;;;;;;;6.20;2.10;;;17.40;6.90;;;;;;5094917;28;20497;-56
2022/10/16 08:07:58;;;;;;;7.78;2.13;;;17.40;18.00;;;;;;5074679;28;20901;-56
2022/10/16 08:10:26;;;;;;;6.33;1.90;;;17.70;1.00;;;;;;5081746;28;20427;-56
2022/10/16 08:12:51;;;;;;;6.82;2.60;;;18.00;1.00;;;;;;5088725;28;20917;-57
2022/10/16 08:15:17;;;;;;;6.43;2.28;;;18.30;1.00;;;;;;5099599;28;20390;-56
2022/10/16 08:17:44;;;;;;;6.10;2.20;;;18.50;1.00;;;;;;5101464;28;20460;-56
2022/10/16 08:20:10;;;;;;;5.83;2.00;;;18.70;99.90;;;;;;5096129;28;20400;-57
2022/10/16 08:22:35;;;;;;;6.60;2.00;;;19.20;99.90;;;;;;5101281;28;20399;-57
2022/10/16 08:25:02;;;;;;;5.90;1.67;;;;;;;;;;5098009;28;20409;-58
2022/10/16 08:27:32;;;;;;;6.60;1.90;;;23.80;99.90;;;;;;5097912;28;20543;-57
2022/10/16 08:29:57;;;;;;;7.63;2.10;;;24.00;1.00;;;;;;5096708;28;20475;-57
2022/10/16 08:32:23;;;;;;;11.30;2.45;;;23.40;1.00;;;;;;5087135;28;20481;-57
2022/10/16 08:34:49;;;;;;;8.23;1.70;;;22.90;1.00;;;;;;5079723;28;20435;-57
2022/10/16 08:37:14;;;;;;;6.88;2.10;;;22.70;1.00;;;;;;5080134;28;20388;-57
2022/10/16 08:39:40;;;;;;;7.50;1.70;;;22.40;1.00;;;;;;5083088;28;20438;-57
2022/10/16 08:42:27;;;;;;;10.30;2.10;;;22.40;1.00;;;;;;5080202;28;20866;-57
2022/10/16 08:45:01;;;;;;;6.13;1.90;;;22.40;1.00;;;;;;5078704;28;20962;-57
2022/10/16 08:47:45;;;;;;;6.70;2.10;;;22.30;1.00;;;;;;5081599;28;20630;-57
2022/10/16 08:50:22;;;;;;;7.00;2.10;;;22.10;1.00;;;;;;5079552;28;20833;-57
2022/10/16 08:52:48;;;;;;;5.57;1.85;;;21.70;1.00;;;;;;5076332;28;20390;-57
2022/10/16 08:55:45;;;;;;;6.37;2.10;;;22.30;2.10;;;;;;5070434;28;20412;-57
2022/10/16 08:58:16;;;;;;;5.97;1.87;;;21.30;1.00;;;;;;5053117;28;20410;-58
2022/10/16 09:00:44;;;;;;;6.22;1.80;;;21.20;4.30;;;;;;5085245;28;20377;-58
2022/10/16 09:03:18;;;;;;;6.30;2.10;;;21.10;44.30;;;;;;5077450;28;20467;-58
2022/10/16 09:06:07;;;;;;;6.47;2.13;;;20.80;99.90;;;;;;5075882;28;20434;-58
2022/10/16 09:09:01;;;;;;;9.70;2.00;;;20.80;99.90;;;;;;5076466;28;20933;-56
2022/10/16 09:11:50;;;;;;;7.50;2.20;;;20.60;99.90;;;;;;5084146;28;20700;-58
2022/10/16 09:14:36;;;;;;;7.00;2.10;;;20.50;1.00;;;;;;5074744;28;20799;-56
2022/10/16 09:17:36;;;;;;;6.03;2.03;;;20.50;1.00;;;;;;5077577;28;20380;-58
2022/10/16 09:20:11;;;;;;;7.97;2.05;;;20.40;99.90;;;;;;5071129;28;20411;-57
2022/10/16 09:22:37;;;;;;;6.47;2.50;;;20.80;99.90;;;;;;5071177;28;20387;-58
2022/10/16 09:25:12;;;;;;;5.83;1.60;;;21.60;1.00;;;;;;5082909;28;20413;-57
2022/10/16 09:27:38;;;;;;;6.65;1.90;;;22.50;99.90;;;;;;5090042;28;20460;-57
2022/10/16 09:30:12;;;;;;;8.97;2.30;;;23.40;87.80;;;;;;5089217;28;20374;-57
2022/10/16 09:32:38;;;;;;;9.10;1.80;;;24.20;1.00;;;;;;5089371;28;20477;-57
2022/10/16 09:35:10;;;;;;;5.90;1.50;;;24.70;1.00;;;;;;5088817;28;20398;-57
2022/10/16 09:37:36;;;;;;;5.38;1.60;;;24.70;1.00;;;;;;5089758;28;20374;-57
2022/10/16 09:40:02;;;;;;;5.20;1.60;;;25.10;1.00;;;;;;5088823;28;20712;-57
2022/10/16 09:42:34;;;;;;;5.25;1.42;;;25.20;1.00;;;;;;5091274;28;20381;-58
2022/10/16 09:45:00;;;;;;;6.15;1.60;;;25.00;1.00;;;;;;5092986;28;20410;-58
2022/10/16 09:47:28;;;;;;;6.70;2.10;;;24.90;1.00;;;;;;5075694;28;20370;-58
2022/10/16 09:50:01;;;;;;;6.60;2.20;;;25.50;1.00;;;;;;5092419;28;20370;-58
2022/10/16 09:52:29;;;;;;;5.65;2.60;;;25.50;1.00;;;;;;5073349;28;20383;-58
2022/10/16 09:54:55;;;;;;;7.40;2.30;;;25.90;1.00;;;;;;5072121;28;20901;-58
2022/10/16 09:57:22;;;;;;;7.00;2.50;;;26.20;1.00;;;;;;5072523;28;20791;-58
2022/10/16 10:00:09;;;;;;;7.00;3.70;;;27.00;1.00;;;;;;5072842;28;20491;-58
2022/10/16 10:02:37;;;;;;;6.38;3.72;;;27.30;1.00;;;;;;5073463;28;20383;-59
2022/10/16 10:05:05;;;;;;;6.90;4.20;;;28.30;1.00;;;;;;5072118;28;20494;-58
2022/10/16 10:07:34;;;;;;;8.00;3.90;;;28.20;1.00;;;;;;5072828;28;20415;-58
2022/10/16 10:10:03;;;;;;;6.05;2.70;;;27.00;1.00;;;;;;5071711;28;20380;-58
2022/10/16 10:12:32;;;;;;;7.70;2.40;;;26.10;1.00;;;;;;5076538;28;20410;-58
2022/10/16 10:15:11;;;;;;;6.10;2.30;;;26.00;1.00;;;;;;5074300;28;20378;-58
2022/10/16 10:17:47;;;;;;;6.63;1.88;;;25.50;1.00;;;;;;5093014;28;20481;-58
2022/10/16 10:20:28;;;;;;;6.00;1.80;;;26.00;1.00;;;;;;5091932;28;20371;-59
2022/10/16 10:22:55;;;;;;;6.65;2.30;;;27.00;1.00;;;;;;5071925;28;20482;-59
2022/10/16 10:25:46;;;;;;;5.70;2.28;;;27.60;1.00;;;;;;5091511;28;20418;-59
2022/10/16 10:28:20;;;;;;;6.00;2.70;;;27.60;1.00;;;;;;5092088;28;20407;-58
2022/10/16 10:31:23;;;;;;;7.43;2.85;;;27.60;1.00;;;;;;5092929;28;20444;-58
2022/10/16 10:34:09;;;;;;;6.10;3.67;;;27.30;1.00;;;;;;5092657;28;20401;-58
2022/10/16 10:36:39;;;;;;;6.00;2.70;;;26.70;1.00;;;;;;5092128;28;20428;-58
2022/10/16 10:39:14;;;;;;;6.55;2.30;;;26.00;1.00;;;;;;5091839;28;20378;-58
2022/10/16 10:41:54;;;;;;;6.00;2.10;;;25.80;1.00;;;;;;5108211;28;20394;-58
2022/10/16 10:44:48;;;;;;;5.50;2.03;;;25.60;1.00;;;;;;5092597;28;20369;-58
2022/10/16 10:47:22;;;;;;;5.40;2.08;;;25.50;1.00;;;;;;5091778;28;20473;-57
2022/10/16 10:49:59;;;;;;;5.50;1.90;;;25.40;1.00;;;;;;5092279;28;20392;-57
2022/10/16 10:52:24;;;;;;;5.53;2.00;;;25.40;1.00;;;;;;5091744;28;20378;-57
2022/10/16 10:55:12;;;;;;;6.10;1.90;;;25.20;1.00;;;;;;5091219;28;20869;-58
2022/10/16 10:58:14;;;;;;;6.77;2.00;;;25.50;1.00;;;;;;5092318;28;20378;-58
2022/10/16 11:01:08;;;;;;;6.20;2.00;;;26.10;1.00;;;;;;5091819;28;20390;-58
2022/10/16 11:04:06;;;;;;;7.78;2.40;;;25.80;1.00;;;;;;5091675;28;20389;-58
2022/10/16 11:06:42;;;;;;;5.50;1.90;;;25.60;1.00;;;;;;5092137;28;20509;-58
2022/10/16 11:09:16;;;;;;;5.50;1.70;;;25.70;1.00;;;;;;5091420;28;20409;-58
2022/10/16 11:11:43;;;;;;;5.90;1.80;;;26.30;1.00;;;;;;5091496;28;20388;-58
2022/10/16 11:14:28;;;;;;;6.18;1.90;;;26.60;1.00;;;;;;5090470;28;20463;-58
2022/10/16 11:16:59;;;;;;;6.70;2.20;;;26.70;1.00;;;;;;5091484;28;20476;-58
2022/10/16 11:19:54;;;;;;;6.15;2.15;;;26.70;1.00;;;;;;5092112;28;20396;-57
2022/10/16 11:22:36;;;;;;;7.00;2.10;;;26.20;1.00;;;;;;5091627;28;20863;-57
2022/10/16 11:25:08;;;;;;;5.70;1.90;;;25.90;1.00;;;;;;5090608;28;20930;-57
2022/10/16 11:27:49;;;;;;;5.78;2.00;;;25.60;1.00;;;;;;5094067;28;20871;-58
2022/10/16 11:30:24;;;;;;;5.28;1.80;;;25.40;1.00;;;;;;5090582;28;20393;-57
2022/10/16 11:33:11;;;;;;;5.70;1.80;;;25.20;1.00;;;;;;5091116;28;20859;-57
2022/10/16 11:35:58;;;;;;;5.30;1.60;;;25.20;1.00;;;;;;5091541;28;20397;-57
2022/10/16 11:39:02;;;;;;;5.60;2.00;;;25.10;1.00;;;;;;5091448;28;20882;-57
2022/10/16 11:41:31;;;;;;;6.53;2.00;;;25.10;1.00;;;;;;5008747;28;20890;-57
2022/10/16 11:44:06;;;;;;;6.13;1.80;;;25.20;1.00;;;;;;5008004;28;20892;-57
2022/10/16 11:46:33;;;;;;;5.40;1.60;;;25.20;1.00;;;;;;5054353;28;20426;-57
2022/10/16 11:49:12;;;;;;;5.43;1.77;;;25.10;1.00;;;;;;5087637;28;20405;-57
2022/10/16 11:51:48;;;;;;;5.82;1.50;;;25.40;1.00;;;;;;5090381;28;20409;-57
2022/10/16 11:54:32;;;;;;;5.75;1.75;;;25.60;1.00;;;;;;5087310;28;20386;-58
2022/10/16 11:57:03;;;;;;;7.87;2.30;;;25.60;1.00;;;;;;5069618;28;20858;-58
2022/10/16 11:59:38;;;;;;;6.78;1.88;;;25.60;1.00;;;;;;5071825;28;20392;-56
2022/10/16 12:02:48;;;;;;;5.70;1.60;;;25.20;1.00;;;;;;5086170;28;20436;-58
2022/10/16 12:05:31;;;;;;;5.45;1.42;;;25.20;1.00;;;;;;5083522;28;20886;-56
2022/10/16 12:08:12;;;;;;;11.40;2.70;;;25.30;1.00;;;;;;5079130;28;20399;-57
2022/10/16 12:10:41;;;;;;;7.82;2.25;;;25.30;1.00;;;;;;5075242;28;20463;-57
2022/10/16 12:13:40;;;;;;;5.93;1.70;;;25.10;1.00;;;;;;5062619;28;20751;-57
2022/10/16 12:16:11;;;;;;;6.03;1.70;;;25.00;1.00;;;;;;5082180;28;20387;-57
2022/10/16 12:18:38;;;;;;;7.25;1.80;;;25.10;1.00;;;;;;5087472;28;20409;-57
2022/10/16 12:21:07;;;;;;;7.10;2.00;;;25.10;1.00;;;;;;5084895;28;20447;-57
2022/10/16 12:23:36;;;;;;;5.30;1.63;;;25.00;1.00;;;;;;5084156;28;20879;-57
2022/10/16 12:26:03;;;;;;;5.68;1.77;;;24.90;1.00;;;;;;5074683;28;20402;-57
2022/10/16 12:28:31;;;;;;;6.40;1.60;;;24.90;1.00;;;;;;5070361;28;20391;-57
2022/10/16 12:31:06;;;;;;;8.07;2.30;;;25.00;1.00;;;;;;5073374;28;20765;-57
2022/10/16 12:33:39;;;;;;;6.00;1.73;;;25.40;1.00;;;;;;5076733;28;20420;-57
2022/10/16 12:36:15;;;;;;;5.43;1.77;;;25.50;1.00;;;;;;5093435;28;20392;-57
2022/10/16 12:38:50;;;;;;;5.60;1.73;;;25.50;1.00;;;;;;5087680;28;20408;-57
2022/10/16 12:41:28;;;;;;;8.00;2.03;;;25.50;1.00;;;;;;5079132;28;20404;-57
2022/10/16 12:43:54;;;;;;;6.00;1.80;;;25.60;1.00;;;;;;5086694;28;20402;-57
2022/10/16 12:46:28;;;;;;;9.48;2.17;;;25.60;1.00;;;;;;5078548;28;20484;-57
2022/10/16 12:49:14;;;;;;;6.90;1.80;;;25.80;1.00;;;;;;5089322;28;20476;-58
2022/10/16 12:51:41;;;;;;;6.00;1.90;;;25.90;1.00;;;;;;5089405;28;20476;-58
2022/10/16 12:54:06;;;;;;;5.88;1.70;;;26.00;1.00;;;;;;5077271;28;20384;-57
2022/10/16 12:56:57;;;;;;;5.95;2.08;;;25.80;1.00;;;;;;5087382;28;20943;-58
2022/10/16 12:59:34;;;;;;;7.80;1.90;;;25.60;1.00;;;;;;5077926;28;20402;-57
2022/10/16 13:02:20;;;;;;;6.43;2.08;;;25.40;1.00;;;;;;5075481;28;20402;-57
2022/10/16 13:05:11;;;;;;;8.03;2.30;;;25.30;1.00;;;;;;5081114;28;20402;-57
2022/10/16 13:07:52;;;;;;;6.30;1.80;;;25.40;1.00;;;;;;5075670;28;20451;-57
2022/10/16 13:10:31;;;;;;;5.83;1.90;;;25.50;1.00;;;;;;5091305;28;20383;-57
2022/10/16 13:13:34;;;;;;;7.60;2.10;;;25.50;1.00;;;;;;5086286;28;20370;-59
2022/10/16 13:16:15;;;;;;;6.07;2.13;;;25.30;1.00;;;;;;5079310;28;20506;-57